KDRI/DRI METAR and TAF weather

Enter ICAO airport designator
Station Type Date Time Source
KDRI METAR 2020/11/27 14:55 UTC NOAA

KDRI 271455Z AUTO 19005KT 3SM -RA OVC003 21/21 A3004 RMK AO2 LTG DSNT W THRU N P0002 60002 T02100210


Station Type Date Time Source
KDRI Decoded METAR 2020/11/27 14:55 UTC NOAA

De Ridder, Beauregard Parish Airport, LA, United States (KDRI) 30-49-54N 093-20-23W
Nov 27, 2020 - 09:55 AM EST / 2020.11.27 1455 UTC
Wind: from the S (190 degrees) at 6 MPH (5 KT):0
Visibility: 3 mile(s):0
Sky conditions: overcast
Weather: light rain; Lightning observed
Precipitation last hour: 0.02 inches
Temperature: 69.8 F (21.0 C)
Dew Point: 69.8 F (21.0 C)
Relative Humidity: 100%
Pressure (altimeter): 30.04 in. Hg (1017 hPa)
ob: KDRI 271455Z AUTO 19005KT 3SM -RA OVC003 21/21 A3004 RMK AO2 LTG DSNT W THRU N P0002 60002 T02100210
cycle: 15

Station Type Date Time Source
KDRI TAF UTC NOAA

Error!

Example: see airport list